Time;durP1;ratioP1;P1;durP2;ratioP2;P2;SDS_P1;SDS_P2;PMS_P1;PMS_P2;Temp;Humidity;BMP_temperature;BMP_pressure;BME280_temperature;BME280_humidity;BME280_pressure;Samples;Min_cycle;Max_cycle;Signal;HPM_P1;HPM_P2
2021/07/18 00:04:05;;;;;;;0.63;0.63;;;;;;;21.01;45.30;92471.44;6189738;23;20654;-91
2021/07/18 00:07:06;;;;;;;0.10;0.10;;;;;;;20.77;45.54;92429.91;6155312;23;20080;-92
2021/07/18 00:10:05;;;;;;;0.20;0.20;;;;;;;20.98;45.19;92450.81;6159723;23;20017;-93
2021/07/18 00:13:05;;;;;;;;;;;;;;;;;;;;;
2021/07/18 00:16:25;;;;;;;;;;;;;;;;;;;;;
2021/07/18 00:23:10;;;;;;;;;;;;;;;;;;;;;
2021/07/18 00:26:11;;;;;;;;;;;;;;;;;;;;;
2021/07/18 00:29:32;;;;;;;;;;;;;;;;;;;;;
2021/07/18 00:33:12;;;;;;;;;;;;;;;;;;;;;
2021/07/18 00:36:52;;;;;;;;;;;;;;;;;;;;;
2021/07/18 01:00:03;;;;;;;;;;;;;;;;;;;;;
2021/07/18 01:07:05;;;;;;;0.20;0.20;;;;;;;20.61;45.13;92392.00;5882608;24;20544;-93
2021/07/18 01:27:02;;;;;;;;;;;;;;;;;;;;;
2021/07/18 01:30:40;;;;;;;0.30;0.30;;;;;;;20.61;45.58;92389.34;5909854;24;20099;-91
2021/07/18 01:41:24;;;;;;;0.30;0.20;;;;;;;20.74;45.24;92406.69;5779495;24;20566;-93
2021/07/18 01:56:27;;;;;;;0.50;0.25;;;;;;;20.40;44.81;92353.22;5766489;24;20031;-92
2021/07/18 01:59:25;;;;;;;;;;;;;;;;;;;;;
2021/07/18 02:02:58;;;;;;;;;;;;;;;;;;;;;
2021/07/18 02:13:23;;;;;;;;;;;;;;;;;;;;;
2021/07/18 02:16:29;;;;;;;0.30;0.30;;;;;;;20.37;45.54;92369.84;6067922;23;20109;-92
2021/07/18 02:19:29;;;;;;;0.45;0.43;;;;;;;20.28;45.50;92356.00;6091477;23;20114;-93
2021/07/18 02:22:53;;;;;;;0.22;0.22;;;;;;;20.64;45.13;92393.94;6068778;23;20110;-93
2021/07/18 02:26:09;;;;;;;;;;;;;;;;;;;;;
2021/07/18 02:29:16;;;;;;;;;;;;;;;;;;;;;
2021/07/18 02:32:46;;;;;;;0.13;0.13;;;;;;;20.31;45.69;92363.25;6224754;23;20020;-94
2021/07/18 02:35:44;;;;;;;;;;;;;;;;;;;;;
2021/07/18 02:38:37;;;;;;;0.45;0.45;;;;;;;20.37;45.37;92361.88;6230343;23;20100;-93
2021/07/18 02:41:39;;;;;;;0.10;0.10;;;;;;;20.58;45.57;92393.47;6236250;23;20013;-92
2021/07/18 02:45:08;;;;;;;;;;;;;;;;;;;;;
2021/07/18 02:48:50;;;;;;;0.30;0.30;;;;;;;20.30;45.68;92373.13;6190599;23;20071;-91
2021/07/18 02:56:15;;;;;;;0.20;0.20;;;;;;;20.44;46.13;92406.44;5951359;23;20509;-93
2021/07/18 02:59:17;;;;;;;;;;;;;;;;;;;;;
2021/07/18 03:02:03;;;;;;;;;;;;;;;;;;;;;
2021/07/18 03:05:16;;;;;;;0.10;0.10;;;;;;;20.26;46.58;92392.78;6100580;23;20113;-92
2021/07/18 03:08:16;;;;;;;;;;;;;;;;;;;;;
2021/07/18 03:11:34;;;;;;;;;;;;;;;;;;;;;
2021/07/18 03:25:07;;;;;;;;;;;;;;;;;;;;;
2021/07/18 03:28:24;;;;;;;;;;;;;;;;;;;;;
2021/07/18 03:31:17;;;;;;;0.30;0.30;;;;;;;20.23;46.19;92386.28;6172620;23;20048;-92
2021/07/18 03:34:09;;;;;;;0.30;0.30;;;;;;;20.26;46.04;92384.81;6229938;23;20119;-92
2021/07/18 03:37:20;;;;;;;0.25;0.25;;;;;;;20.41;45.54;92393.84;6206826;23;20108;-91
2021/07/18 03:48:10;;;;;;;0.30;0.30;;;;;;;20.66;45.84;92424.38;6138361;23;20017;-93
2021/07/18 03:50:57;;;;;;;;;;;;;;;;;;;;;
2021/07/18 03:54:44;;;;;;;;;;;;;;;;;;;;;
2021/07/18 04:01:09;;;;;;;;;;;;;;;;;;;;;
2021/07/18 04:04:36;;;;;;;;;;;;;;;;;;;;;
2021/07/18 04:17:02;;;;;;;;;;;;;;;;;;;;;
2021/07/18 04:19:57;;;;;;;0.20;0.20;;;;;;;20.66;46.93;92405.00;6212953;23;20097;-93
2021/07/18 04:23:18;;;;;;;0.43;0.43;;;;;;;20.68;46.91;92416.06;6176597;23;20024;-92
2021/07/18 04:26:23;;;;;;;;;;;;;;;;;;;;;
2021/07/18 04:30:27;;;;;;;0.32;0.32;;;;;;;20.82;47.26;92437.59;6177137;23;20025;-91
2021/07/18 04:33:59;;;;;;;;;;;;;;;;;;;;;
2021/07/18 04:36:30;;;;;;;;;;;;;;;;;;;;;
2021/07/18 04:43:30;;;;;;;;;;;;;;;20.89;47.11;92452.94;6118487;23;20036;-92
2021/07/18 04:46:49;;;;;;;1.73;1.13;;;;;;;20.66;47.56;92419.06;6137625;23;19966;-93
2021/07/18 04:50:11;;;;;;;2.72;1.27;;;;;;;20.61;48.53;92410.59;6120316;23;20104;-93
2021/07/18 04:52:47;;;;;;;0.65;0.57;;;;;;;20.61;49.19;92418.59;6119480;23;20014;-92
2021/07/18 04:59:51;;;;;;;;;;;;;;;;;;;;;
2021/07/18 05:03:12;;;;;;;0.10;0.10;;;;;;;20.66;48.49;92418.31;6099388;23;20101;-94
2021/07/18 05:10:19;;;;;;;;;;;;;;;;;;;;;
2021/07/18 05:13:23;;;;;;;0.30;0.30;;;;;;;21.11;47.67;92448.78;6191284;23;20123;-92
2021/07/18 05:16:43;;;;;;;0.30;0.30;;;;;;;20.91;47.43;92413.44;6172977;23;20013;-93
2021/07/18 05:23:31;;;;;;;;;;;;;;;;;;;;;
2021/07/18 05:30:47;;;;;;;;;;;;;;;;;;;;;
2021/07/18 05:41:18;;;;;;;0.25;0.25;;;;;;;21.30;48.91;92456.75;5943484;24;20020;-92
2021/07/18 05:49:16;;;;;;;;;;;;;;;;;;;;;
2021/07/18 05:57:23;;;;;;;;;;;;;;;;;;;;;
2021/07/18 06:13:56;;;;;;;;;;;;;;;;;;;;;
2021/07/18 06:25:31;;;;;;;;;;;;;;;;;;;;;
2021/07/18 06:28:55;;;;;;;;;;;;;;;;;;;;;
2021/07/18 06:53:45;;;;;;;;;;;;;;;;;;;;;
2021/07/18 06:57:13;;;;;;;;;;;;;;;;;;;;;
2021/07/18 07:03:58;;;;;;;0.75;0.55;;;;;;;23.18;40.53;92392.38;6154179;23;20051;-93
2021/07/18 07:07:37;;;;;;;;;;;;;;;;;;;;;
2021/07/18 07:10:49;;;;;;;;;;;;;;;;;;;;;
2021/07/18 07:13:30;;;;;;;0.55;0.52;;;;;;;23.65;39.12;92368.72;6209214;23;20033;-92
2021/07/18 07:16:40;;;;;;;0.40;0.40;;;;;;;23.85;38.55;92379.97;6187903;23;20448;-92
2021/07/18 07:23:11;;;;;;;0.77;0.75;;;;;;;23.92;39.65;92395.31;6119007;23;20117;-93
2021/07/18 07:26:18;;;;;;;0.98;0.82;;;;;;;24.27;38.69;92426.84;6075714;23;20096;-91
2021/07/18 07:32:36;;;;;;;0.40;0.40;;;;;;;24.18;39.30;92387.03;6120163;23;20445;-95
2021/07/18 07:39:43;;;;;;;;;;;;;;;;;;;;;
2021/07/18 07:42:25;;;;;;;0.30;0.30;;;;;;;24.57;38.67;92413.28;6206746;22;20108;-77
2021/07/18 07:44:52;;;;;;;1.08;0.88;;;;;;;24.59;38.79;92426.25;6186622;23;20048;-78
2021/07/18 07:47:18;;;;;;;0.52;0.43;;;;;;;24.56;38.17;92406.38;6214072;23;20365;-78
2021/07/18 07:49:44;;;;;;;0.30;0.30;;;;;;;24.48;38.50;92418.22;6212409;23;19997;-77
2021/07/18 07:52:11;;;;;;;0.45;0.45;;;;;;;24.54;38.93;92423.97;6213879;23;20019;-77
2021/07/18 07:54:37;;;;;;;0.63;0.40;;;;;;;24.61;38.35;92419.41;6187820;23;20016;-77
2021/07/18 07:57:04;;;;;;;0.52;0.50;;;;;;;24.70;37.48;92406.47;6213375;23;20016;-77
2021/07/18 07:59:29;;;;;;;0.93;0.63;;;;;;;24.75;38.59;92423.31;6186984;23;20000;-78
2021/07/18 08:01:55;;;;;;;0.35;0.35;;;;;;;24.84;37.94;92415.69;6186864;23;20023;-77
2021/07/18 08:04:20;;;;;;;0.90;0.82;;;;;;;24.91;36.76;92415.72;6213811;23;20392;-77
2021/07/18 08:06:46;;;;;;;0.82;0.80;;;;;;;25.16;38.02;92410.44;6213257;23;20017;-77
2021/07/18 08:09:12;;;;;;;0.63;0.60;;;;;;;25.51;38.18;92404.41;6187817;23;20348;-77
2021/07/18 08:11:37;;;;;;;0.63;0.52;;;;;;;25.98;37.75;92415.13;6213846;23;20028;-77
2021/07/18 08:14:03;;;;;;;0.95;0.65;;;;;;;26.42;36.29;92405.88;6212992;23;20013;-77
2021/07/18 08:16:29;;;;;;;0.70;0.47;;;;;;;27.01;35.53;92405.31;6187533;23;20028;-78
2021/07/18 08:18:55;;;;;;;1.00;0.90;;;;;;;27.50;34.92;92406.22;6185326;23;20518;-78
2021/07/18 08:21:20;;;;;;;0.45;0.45;;;;;;;27.21;34.36;92394.88;6212210;23;20119;-78
2021/07/18 08:23:49;;;;;;;1.45;0.82;;;;;;;27.11;33.41;92401.81;6187191;23;20012;-77
2021/07/18 08:26:20;;;;;;;1.05;0.70;;;;;;;26.93;33.79;92407.28;6213133;23;20012;-78
2021/07/18 08:28:46;;;;;;;0.75;0.50;;;;;;;26.68;35.54;92396.66;6212881;23;20012;-77
2021/07/18 08:31:12;;;;;;;0.60;0.50;;;;;;;26.67;34.79;92405.06;6187434;23;20012;-78
2021/07/18 08:33:38;;;;;;;0.30;0.30;;;;;;;26.71;34.24;92405.84;6187654;23;20131;-77
2021/07/18 08:36:04;;;;;;;2.08;1.33;;;;;;;26.50;33.89;92398.56;6213552;23;20069;-77
2021/07/18 08:38:30;;;;;;;0.35;0.35;;;;;;;26.49;36.31;92400.50;6213174;23;20036;-77
2021/07/18 08:40:56;;;;;;;0.50;0.50;;;;;;;26.56;34.84;92402.41;6227645;23;20352;-78
2021/07/18 08:43:23;;;;;;;3.40;1.45;;;;;;;26.45;35.23;92413.16;6192375;23;20016;-77
2021/07/18 08:45:49;;;;;;;0.47;0.47;;;;;;;26.42;35.55;92408.56;6217338;23;20387;-77
2021/07/18 08:48:15;;;;;;;1.77;1.42;;;;;;;26.44;35.37;92411.63;6217109;23;20015;-78
2021/07/18 08:50:41;;;;;;;2.03;1.15;;;;;;;26.57;34.90;92409.34;6219236;23;20019;-78
2021/07/18 08:53:07;;;;;;;0.75;0.60;;;;;;;26.92;35.57;92407.66;6243335;23;20043;-78
2021/07/18 08:55:33;;;;;;;0.30;0.30;;;;;;;26.98;35.06;92398.03;6243920;23;20375;-77
2021/07/18 08:57:59;;;;;;;0.63;0.60;;;;;;;27.11;34.75;92399.13;6242852;23;20016;-78
2021/07/18 09:00:25;;;;;;;0.60;0.60;;;;;;;27.41;34.06;92408.59;6242865;23;20019;-78
2021/07/18 09:02:51;;;;;;;0.40;0.40;;;;;;;27.77;34.72;92408.34;6243218;23;20004;-78
2021/07/18 09:05:17;;;;;;;0.43;0.43;;;;;;;28.35;34.29;92406.72;6243427;23;20016;-78
2021/07/18 09:07:49;;;;;;;0.80;0.80;;;;;;;28.48;32.79;92398.13;6247297;23;20011;-79
2021/07/18 09:10:21;;;;;;;0.85;0.65;;;;;;;28.66;32.97;92398.69;6242940;23;20087;-76
2021/07/18 09:13:16;;;;;;;0.65;0.65;;;;;;;28.86;33.07;92409.63;6241085;23;20062;-77
2021/07/18 09:15:48;;;;;;;0.63;0.63;;;;;;;29.15;32.04;92399.28;6239118;23;20068;-76
2021/07/18 09:18:18;;;;;;;0.45;0.45;;;;;;;29.39;32.42;92397.44;6214350;23;20054;-76
2021/07/18 09:20:46;;;;;;;1.15;0.73;;;;;;;29.75;32.08;92396.94;6241126;23;20521;-76
2021/07/18 09:23:17;;;;;;;0.95;0.85;;;;;;;29.85;31.68;92406.78;6214508;23;20004;-77
2021/07/18 09:25:44;;;;;;;1.10;1.00;;;;;;;29.58;29.61;92397.94;6248103;23;20058;-78
2021/07/18 09:28:15;;;;;;;1.48;1.15;;;;;;;29.34;32.17;92405.22;6194154;23;20020;-80
2021/07/18 09:30:41;;;;;;;;;;;;;;;29.32;30.74;92399.44;6195096;23;20574;-78
2021/07/18 09:33:29;;;;;;;1.17;0.93;;;;;;;29.67;31.11;92393.53;6221248;23;19911;-78
2021/07/18 09:36:11;;;;;;;0.75;0.63;;;;;;;29.56;30.49;92401.03;6248144;23;20043;-79
2021/07/18 09:38:37;;;;;;;1.10;0.85;;;;;;;29.36;30.77;92382.09;6252116;23;20015;-79
2021/07/18 09:41:04;;;;;;;1.15;0.80;;;;;;;29.20;30.04;92388.06;6229429;23;20020;-79
2021/07/18 09:43:30;;;;;;;1.65;0.90;;;;;;;28.63;31.63;92392.19;6254518;23;20039;-78
2021/07/18 09:46:01;;;;;;;1.75;1.20;;;;;;;28.58;31.34;92394.59;6254155;23;20019;-79
2021/07/18 09:48:46;;;;;;;1.42;0.98;;;;;;;28.80;32.16;92393.16;6255761;23;20008;-79
2021/07/18 09:51:16;;;;;;;1.55;1.15;;;;;;;29.04;31.79;92394.00;6256883;23;20027;-79
2021/07/18 09:53:42;;;;;;;1.20;0.90;;;;;;;29.39;32.11;92386.66;6228381;23;20024;-79
2021/07/18 09:56:17;;;;;;;1.95;1.13;;;;;;;29.57;31.22;92385.63;6251424;23;20012;-78
2021/07/18 09:58:54;;;;;;;1.65;1.20;;;;;;;29.98;31.30;92390.03;6221469;23;20563;-80
2021/07/18 10:01:20;;;;;;;1.50;0.88;;;;;;;29.38;28.98;92389.75;6245436;23;20019;-78
2021/07/18 10:03:47;;;;;;;0.93;0.80;;;;;;;28.98;29.40;92376.00;6219517;23;20092;-79
2021/07/18 10:06:18;;;;;;;0.90;0.88;;;;;;;29.26;31.23;92383.00;6252130;23;20508;-78
2021/07/18 10:08:47;;;;;;;3.08;1.50;;;;;;;29.49;30.92;92384.97;6245855;23;20467;-79
2021/07/18 10:11:21;;;;;;;0.75;0.70;;;;;;;29.04;30.29;92387.88;6247792;23;20015;-77
2021/07/18 10:13:48;;;;;;;0.85;0.65;;;;;;;28.76;31.79;92389.75;6242745;23;20008;-77
2021/07/18 10:16:15;;;;;;;0.65;0.65;;;;;;;28.93;31.35;92398.00;6214990;23;20032;-77
2021/07/18 10:18:42;;;;;;;1.10;0.65;;;;;;;28.89;31.86;92386.50;6216723;23;20000;-77
2021/07/18 10:21:11;;;;;;;0.90;0.88;;;;;;;29.34;32.03;92378.25;6243135;23;20023;-76
2021/07/18 10:23:40;;;;;;;1.15;1.05;;;;;;;29.46;31.02;92385.78;6244007;23;20008;-77
2021/07/18 10:26:07;;;;;;;0.82;0.82;;;;;;;29.66;31.84;92392.03;6243134;23;20344;-77
2021/07/18 10:28:35;;;;;;;1.60;1.05;;;;;;;29.92;32.04;92384.34;6243123;23;20467;-78
2021/07/18 10:31:29;;;;;;;0.88;0.77;;;;;;;29.83;30.18;92374.06;6247165;23;20084;-78
2021/07/18 10:33:56;;;;;;;1.08;0.98;;;;;;;28.98;30.35;92379.47;6203398;23;20020;-77
2021/07/18 10:36:24;;;;;;;0.60;0.60;;;;;;;29.40;34.04;92403.59;6222743;23;20020;-78
2021/07/18 10:38:50;;;;;;;1.02;0.73;;;;;;;29.19;29.85;92380.41;6246548;23;20087;-78
2021/07/18 10:41:19;;;;;;;2.35;1.40;;;;;;;29.34;30.21;92389.03;6246769;23;20051;-77
2021/07/18 10:43:49;;;;;;;1.33;0.90;;;;;;;29.53;31.34;92379.53;6248170;23;20012;-78
2021/07/18 10:46:41;;;;;;;3.83;1.25;;;;;;;29.34;30.91;92379.03;6244137;23;20024;-77
2021/07/18 10:49:15;;;;;;;1.30;0.80;;;;;;;30.00;31.81;92385.75;6205904;23;20455;-77
2021/07/18 10:51:51;;;;;;;1.35;0.88;;;;;;;29.91;30.31;92388.22;6219159;23;20038;-77
2021/07/18 10:54:20;;;;;;;1.50;0.88;;;;;;;30.18;28.75;92385.44;6241835;23;20016;-78
2021/07/18 10:56:54;;;;;;;1.58;1.08;;;;;;;30.27;30.52;92393.03;6245895;23;20019;-79
2021/07/18 10:59:32;;;;;;;1.50;1.38;;;;;;;30.34;30.66;92392.16;6246060;23;20336;-78
2021/07/18 11:02:16;;;;;;;0.80;0.70;;;;;;;29.98;30.88;92387.34;6219684;23;20012;-79
2021/07/18 11:04:50;;;;;;;1.42;0.82;;;;;;;30.29;31.26;92383.34;6217269;23;20083;-77
2021/07/18 11:07:22;;;;;;;2.28;1.25;;;;;;;30.21;31.48;92395.41;6216089;23;20039;-77
2021/07/18 11:09:50;;;;;;;;;;;;;;;29.99;29.30;92395.03;6215939;23;20023;-78
2021/07/18 11:12:36;;;;;;;0.73;0.70;;;;;;;30.16;30.74;92381.63;6242695;23;19911;-77
2021/07/18 11:15:26;;;;;;;1.17;1.00;;;;;;;30.09;31.46;92396.03;6242780;23;20024;-78
2021/07/18 11:18:35;;;;;;;2.17;1.05;;;;;;;29.87;30.71;92384.81;6216221;23;20051;-78
2021/07/18 11:21:01;;;;;;;0.68;0.60;;;;;;;30.19;30.77;92384.25;6242231;23;20105;-79
2021/07/18 11:23:37;;;;;;;1.52;1.00;;;;;;;30.43;29.07;92384.28;6243714;23;20008;-78
2021/07/18 11:26:03;;;;;;;1.00;0.90;;;;;;;30.30;31.25;92386.81;6215020;23;20012;-77
2021/07/18 11:29:11;;;;;;;1.15;0.90;;;;;;;29.91;31.24;92385.50;6216140;23;20383;-78
2021/07/18 11:31:27;;;;;;;0.77;0.65;;;;;;;30.34;30.50;92382.13;6230205;23;20489;-79
2021/07/18 11:34:10;;;;;;;1.55;1.27;;;;;;;30.48;28.62;92379.13;6242354;23;20013;-79
2021/07/18 11:36:36;;;;;;;0.60;0.60;;;;;;;30.74;30.11;92390.25;6241571;23;20008;-77
2021/07/18 11:39:13;;;;;;;0.80;0.75;;;;;;;30.67;28.89;92388.44;6242440;23;20007;-77
2021/07/18 11:41:40;;;;;;;1.42;1.10;;;;;;;30.23;28.92;92376.13;6242963;23;20101;-78
2021/07/18 11:44:06;;;;;;;1.75;1.00;;;;;;;30.35;30.32;92389.03;6244109;23;20004;-78
2021/07/18 11:46:52;;;;;;;0.93;0.70;;;;;;;30.33;31.11;92386.00;6216575;23;20042;-77
2021/07/18 11:49:19;;;;;;;1.15;0.73;;;;;;;30.21;28.47;92391.97;6242178;23;20440;-77
2021/07/18 11:51:46;;;;;;;1.05;0.70;;;;;;;29.77;30.45;92367.63;6242693;23;20038;-78
2021/07/18 11:54:12;;;;;;;2.15;1.08;;;;;;;30.23;32.12;92381.50;6243172;23;20039;-76
2021/07/18 11:56:40;;;;;;;2.38;0.98;;;;;;;30.26;30.10;92377.97;6215380;23;20384;-76
2021/07/18 11:59:16;;;;;;;3.53;1.48;;;;;;;30.12;31.07;92362.78;6214553;23;20016;-79
2021/07/18 12:01:53;;;;;;;1.20;0.88;;;;;;;30.55;29.32;92375.53;6210951;23;20021;-78
2021/07/18 12:04:24;;;;;;;0.68;0.68;;;;;;;30.64;30.47;92383.84;6241396;23;20518;-77
2021/07/18 12:07:01;;;;;;;1.27;1.13;;;;;;;29.97;29.94;92351.50;6242426;23;20094;-78
2021/07/18 12:09:38;;;;;;;0.68;0.68;;;;;;;30.08;31.15;92367.50;6241608;23;20301;-76
2021/07/18 12:12:09;;;;;;;1.17;0.90;;;;;;;30.19;29.63;92375.41;6241694;23;20019;-78
2021/07/18 12:14:36;;;;;;;4.38;1.08;;;;;;;30.74;30.44;92387.53;6215169;23;20066;-77
2021/07/18 12:17:04;;;;;;;1.13;0.80;;;;;;;30.91;29.36;92375.63;6213185;23;20015;-79
2021/07/18 12:19:31;;;;;;;0.60;0.60;;;;;;;31.23;29.64;92373.44;6241965;23;20012;-77
2021/07/18 12:21:59;;;;;;;1.35;1.15;;;;;;;31.18;29.14;92385.50;6214150;23;20012;-78
2021/07/18 12:24:29;;;;;;;0.98;0.88;;;;;;;30.88;27.73;92379.19;6216148;23;20016;-78
2021/07/18 12:26:58;;;;;;;4.53;0.80;;;;;;;30.85;29.00;92361.09;6239927;23;20443;-79
2021/07/18 12:29:25;;;;;;;0.95;0.77;;;;;;;31.04;29.11;92373.06;6215689;23;20016;-77
2021/07/18 12:31:51;;;;;;;1.65;1.17;;;;;;;31.26;28.97;92381.50;6214280;23;20023;-78
2021/07/18 12:34:18;;;;;;;1.17;0.95;;;;;;;31.42;28.16;92386.19;6242658;23;20090;-78
2021/07/18 12:37:08;;;;;;;1.52;1.17;;;;;;;31.24;28.19;92389.25;6215211;23;20364;-77
2021/07/18 12:39:36;;;;;;;0.98;0.73;;;;;;;31.18;29.72;92382.06;6243015;23;20031;-78
2021/07/18 12:42:08;;;;;;;1.17;1.08;;;;;;;31.45;30.04;92377.22;6241365;23;20028;-78
2021/07/18 12:44:43;;;;;;;0.73;0.73;;;;;;;31.15;29.10;92391.00;6215586;23;20045;-77
2021/07/18 12:47:15;;;;;;;2.15;0.95;;;;;;;31.34;27.61;92384.78;6214716;23;20464;-79
2021/07/18 12:49:40;;;;;;;1.85;1.08;;;;;;;31.64;29.37;92391.88;6242013;23;20039;-79
2021/07/18 12:52:07;;;;;;;1.48;0.90;;;;;;;31.71;28.27;92390.97;6213997;23;20019;-79
2021/07/18 12:54:33;;;;;;;0.80;0.80;;;;;;;31.25;28.11;92387.31;6242253;23;20015;-78
2021/07/18 12:56:58;;;;;;;0.75;0.75;;;;;;;31.02;29.08;92385.47;6218881;23;20016;-79
2021/07/18 12:59:26;;;;;;;1.52;1.00;;;;;;;31.26;28.40;92381.50;6245964;23;20447;-79
2021/07/18 13:01:52;;;;;;;2.92;1.10;;;;;;;31.45;28.64;92385.34;6216151;23;20359;-79
2021/07/18 13:04:31;;;;;;;0.55;0.55;;;;;;;31.82;29.03;92391.47;6196344;23;20011;-80
2021/07/18 13:06:56;;;;;;;0.93;0.80;;;;;;;32.02;28.36;92387.94;6221338;23;20012;-80
2021/07/18 13:09:25;;;;;;;2.05;1.10;;;;;;;32.18;27.61;92373.59;6215862;23;20082;-79
2021/07/18 13:11:55;;;;;;;1.05;0.65;;;;;;;32.27;26.35;92385.38;6217715;23;20089;-79
2021/07/18 13:14:30;;;;;;;0.65;0.65;;;;;;;31.47;27.70;92396.50;6217932;23;20436;-80
2021/07/18 13:17:12;;;;;;;0.80;0.80;;;;;;;30.68;28.06;92402.72;6243158;23;20020;-79
2021/07/18 13:19:43;;;;;;;0.85;0.85;;;;;;;30.89;29.81;92396.94;6247154;23;20524;-77
2021/07/18 13:22:11;;;;;;;0.60;0.60;;;;;;;31.10;30.31;92393.03;6247006;22;20100;-78
2021/07/18 13:24:40;;;;;;;0.80;0.80;;;;;;;31.42;29.72;92393.56;6195204;23;20042;-79
2021/07/18 13:27:16;;;;;;;1.40;1.08;;;;;;;30.79;28.39;92397.09;6240525;23;20000;-77
2021/07/18 13:29:47;;;;;;;1.42;1.30;;;;;;;31.29;29.86;92404.97;6239707;23;20023;-78
2021/07/18 13:32:16;;;;;;;0.98;0.85;;;;;;;31.41;29.84;92403.59;6214367;23;20016;-79
2021/07/18 13:34:57;;;;;;;0.95;0.85;;;;;;;30.68;29.67;92410.81;6214432;23;20475;-79
2021/07/18 13:37:34;;;;;;;1.13;1.00;;;;;;;31.02;28.89;92412.50;6238544;23;20019;-78
2021/07/18 13:40:00;;;;;;;0.75;0.75;;;;;;;31.24;27.71;92400.06;6237256;23;20020;-79
2021/07/18 13:42:34;;;;;;;0.82;0.77;;;;;;;30.80;29.21;92404.78;6222905;23;20016;-79
2021/07/18 13:45:00;;;;;;;1.98;1.35;;;;;;;30.73;29.77;92410.31;6238404;23;20034;-78
2021/07/18 13:47:25;;;;;;;0.90;0.77;;;;;;;31.31;29.03;92412.69;6214147;23;20018;-78
2021/07/18 13:49:51;;;;;;;1.15;0.80;;;;;;;31.76;29.19;92409.38;6241479;23;20012;-78
2021/07/18 13:52:16;;;;;;;1.35;1.02;;;;;;;32.21;27.98;92413.38;6241230;23;20012;-78
2021/07/18 13:54:42;;;;;;;1.50;1.05;;;;;;;31.60;28.94;92409.38;6214728;23;20016;-78
2021/07/18 13:57:08;;;;;;;1.90;1.42;;;;;;;31.05;30.09;92406.25;6214720;23;20023;-79
2021/07/18 13:59:34;;;;;;;0.82;0.82;;;;;;;31.15;29.24;92407.97;6241518;23;20004;-78
2021/07/18 14:02:00;;;;;;;0.88;0.77;;;;;;;31.13;29.29;92410.34;6241080;23;20023;-78
2021/07/18 14:04:25;;;;;;;1.42;1.13;;;;;;;31.16;29.87;92401.38;6214289;23;20024;-79
2021/07/18 14:06:52;;;;;;;0.55;0.55;;;;;;;30.50;29.32;92382.19;6214747;23;20012;-78
2021/07/18 14:09:18;;;;;;;0.85;0.70;;;;;;;30.90;28.78;92390.34;6214561;23;20062;-77
2021/07/18 14:11:44;;;;;;;1.95;1.33;;;;;;;31.18;28.34;92395.56;6214958;23;20019;-79
2021/07/18 14:14:10;;;;;;;1.70;1.40;;;;;;;31.31;28.91;92389.09;6214947;23;20138;-78
2021/07/18 14:16:36;;;;;;;1.20;1.00;;;;;;;31.61;28.07;92395.41;6239402;23;20347;-78
2021/07/18 14:19:04;;;;;;;1.48;1.10;;;;;;;31.85;28.02;92400.69;6215176;23;20047;-78
2021/07/18 14:21:30;;;;;;;0.52;0.52;;;;;;;31.21;28.00;92389.31;6214345;23;20347;-79
2021/07/18 14:23:55;;;;;;;0.60;0.60;;;;;;;31.05;27.88;92395.44;6214587;23;20012;-78
2021/07/18 14:26:21;;;;;;;1.38;1.00;;;;;;;30.79;29.80;92389.75;6242265;23;20030;-81
2021/07/18 14:28:47;;;;;;;1.80;0.85;;;;;;;30.72;30.60;92395.31;6242128;23;20019;-78
2021/07/18 14:31:13;;;;;;;2.55;1.55;;;;;;;30.65;29.86;92398.16;6214070;23;20078;-81
2021/07/18 14:33:38;;;;;;;0.93;0.88;;;;;;;30.33;29.92;92390.63;6214964;23;20017;-77
2021/07/18 14:36:04;;;;;;;1.20;0.85;;;;;;;30.10;30.30;92389.44;6210751;23;20447;-78
2021/07/18 14:38:30;;;;;;;0.60;0.60;;;;;;;30.05;30.34;92390.66;6237710;23;20111;-79
2021/07/18 14:40:56;;;;;;;1.17;0.90;;;;;;;30.01;30.88;92384.56;6212625;23;20020;-77
2021/07/18 14:43:21;;;;;;;1.38;0.82;;;;;;;29.84;31.55;92389.09;6238375;23;20479;-77
2021/07/18 14:45:47;;;;;;;1.30;1.00;;;;;;;29.94;33.00;92382.00;6240340;23;20012;-77
2021/07/18 14:48:13;;;;;;;0.68;0.68;;;;;;;29.88;30.89;92375.56;6213974;23;20000;-78
2021/07/18 14:50:40;;;;;;;1.27;1.00;;;;;;;29.71;30.72;92379.28;6212418;23;20056;-77
2021/07/18 14:53:08;;;;;;;0.88;0.65;;;;;;;29.29;30.62;92379.47;6241500;23;20023;-78
2021/07/18 14:55:38;;;;;;;0.80;0.80;;;;;;;28.79;33.27;92383.56;6238733;23;20023;-77
2021/07/18 14:58:05;;;;;;;1.00;0.70;;;;;;;28.34;32.54;92370.19;6213067;23;20054;-77
2021/07/18 15:00:31;;;;;;;0.40;0.40;;;;;;;28.17;33.88;92376.53;6212045;23;20000;-77
2021/07/18 15:03:01;;;;;;;0.90;0.80;;;;;;;28.19;34.95;92372.25;6238437;23;20012;-77
2021/07/18 15:05:27;;;;;;;0.45;0.45;;;;;;;28.63;32.26;92377.97;6211776;23;20047;-77
2021/07/18 15:07:53;;;;;;;0.47;0.47;;;;;;;28.90;33.19;92372.66;6239048;23;20379;-78
2021/07/18 15:10:19;;;;;;;1.50;1.30;;;;;;;29.47;32.00;92376.53;6238781;23;20012;-77
2021/07/18 15:12:45;;;;;;;0.65;0.40;;;;;;;29.55;32.28;92367.16;6240591;23;20015;-78
2021/07/18 15:15:13;;;;;;;0.63;0.63;;;;;;;29.57;32.06;92364.06;6242522;23;20016;-78
2021/07/18 15:17:39;;;;;;;0.68;0.68;;;;;;;29.98;32.02;92366.50;6215384;23;20035;-77
2021/07/18 15:20:08;;;;;;;0.47;0.38;;;;;;;29.54;30.14;92362.16;6215142;23;20547;-81
2021/07/18 15:22:34;;;;;;;0.63;0.63;;;;;;;29.74;32.04;92364.97;6241093;23;20103;-79
2021/07/18 15:25:01;;;;;;;0.47;0.47;;;;;;;30.07;30.51;92360.56;6242979;23;20348;-78
2021/07/18 15:27:27;;;;;;;0.52;0.52;;;;;;;30.00;30.48;92372.25;6215981;23;20000;-77
2021/07/18 15:29:54;;;;;;;0.60;0.57;;;;;;;29.62;30.36;92353.56;6243611;23;20094;-77
2021/07/18 15:32:20;;;;;;;0.73;0.68;;;;;;;29.93;32.26;92369.69;6242483;23;20043;-76
2021/07/18 15:34:46;;;;;;;1.00;0.80;;;;;;;29.63;31.57;92352.41;6214163;23;20359;-75
2021/07/18 15:37:12;;;;;;;0.80;0.80;;;;;;;30.06;30.69;92354.44;6239147;23;20004;-76
2021/07/18 15:39:38;;;;;;;0.90;0.63;;;;;;;30.06;30.88;92359.03;6215111;23;20008;-76
2021/07/18 15:42:07;;;;;;;0.50;0.50;;;;;;;29.72;30.66;92351.88;6239892;23;20150;-76
2021/07/18 15:44:33;;;;;;;0.50;0.50;;;;;;;29.41;30.54;92362.75;6240160;23;20016;-76
2021/07/18 15:46:58;;;;;;;0.65;0.65;;;;;;;29.45;31.50;92344.59;6242743;23;20016;-77
2021/07/18 15:49:24;;;;;;;1.60;0.85;;;;;;;29.79;32.10;92353.72;6244003;23;20373;-78
2021/07/18 15:51:50;;;;;;;0.40;0.40;;;;;;;29.42;31.74;92340.00;6190211;23;20031;-78
2021/07/18 15:54:15;;;;;;;0.30;0.30;;;;;;;29.32;30.58;92335.53;6213293;23;20094;-78
2021/07/18 15:56:41;;;;;;;0.50;0.50;;;;;;;29.76;32.30;92354.53;6240367;23;20019;-78
2021/07/18 15:59:08;;;;;;;0.70;0.63;;;;;;;29.86;30.48;92340.13;6240219;23;20016;-78
2021/07/18 16:01:34;;;;;;;0.40;0.40;;;;;;;29.76;30.49;92339.13;6239102;23;20050;-79
2021/07/18 16:04:04;;;;;;;0.57;0.57;;;;;;;29.63;30.13;92333.53;6214912;23;20008;-78
2021/07/18 16:06:31;;;;;;;0.50;0.50;;;;;;;29.75;31.43;92339.53;6240181;23;20471;-78
2021/07/18 16:08:57;;;;;;;0.47;0.47;;;;;;;29.34;31.88;92343.22;6216111;23;20012;-78
2021/07/18 16:11:22;;;;;;;1.15;0.80;;;;;;;28.93;32.31;92330.66;6242666;23;20035;-78
2021/07/18 16:13:48;;;;;;;0.30;0.30;;;;;;;28.13;32.32;92322.72;6242410;23;20008;-77
2021/07/18 16:16:14;;;;;;;0.88;0.63;;;;;;;28.45;33.32;92322.38;6244469;23;20118;-79
2021/07/18 16:18:39;;;;;;;0.82;0.80;;;;;;;28.19;32.62;92318.44;6242778;23;20898;-78
2021/07/18 16:21:05;;;;;;;0.40;0.40;;;;;;;28.14;33.59;92328.88;6243143;23;20000;-78
2021/07/18 16:23:31;;;;;;;0.45;0.45;;;;;;;28.32;31.75;92332.13;6243119;23;20012;-81
2021/07/18 16:25:57;;;;;;;0.77;0.60;;;;;;;28.38;32.29;92330.53;6218062;23;20098;-78
2021/07/18 16:28:25;;;;;;;0.35;0.35;;;;;;;28.49;32.25;92324.31;6217399;23;20020;-78
2021/07/18 16:30:51;;;;;;;0.40;0.40;;;;;;;28.50;32.04;92323.88;6215287;23;20008;-79
2021/07/18 16:33:17;;;;;;;0.20;0.20;;;;;;;27.87;32.97;92316.06;6242691;23;20076;-79
2021/07/18 16:35:45;;;;;;;1.08;0.70;;;;;;;27.70;33.10;92327.75;6244200;23;20008;-78
2021/07/18 16:38:10;;;;;;;0.50;0.43;;;;;;;27.48;33.08;92325.22;6243308;23;20008;-78
2021/07/18 16:40:36;;;;;;;0.45;0.45;;;;;;;27.37;33.91;92344.09;6244882;23;20460;-77
2021/07/18 16:43:02;;;;;;;0.93;0.70;;;;;;;26.97;34.66;92332.03;6245452;23;20325;-78
2021/07/18 16:45:28;;;;;;;0.88;0.77;;;;;;;27.45;35.43;92334.06;6218699;23;20012;-78
2021/07/18 16:47:53;;;;;;;0.50;0.50;;;;;;;27.62;33.13;92329.69;6219182;23;20031;-80
2021/07/18 16:50:19;;;;;;;1.08;0.98;;;;;;;28.02;33.57;92343.59;6217739;23;20452;-79
2021/07/18 16:52:45;;;;;;;0.50;0.47;;;;;;;28.16;32.47;92348.06;6246553;23;20050;-79
2021/07/18 16:55:11;;;;;;;0.63;0.52;;;;;;;27.88;32.74;92346.44;6246202;23;20050;-80
2021/07/18 16:57:37;;;;;;;0.55;0.55;;;;;;;27.76;32.85;92347.63;6243777;23;20526;-81
2021/07/18 17:00:04;;;;;;;1.60;1.17;;;;;;;27.92;33.04;92339.84;6219033;23;20026;-81